Kismet, KS

7:28 PM CDT on April 27, 2015 (GMT -0500)
Bozarth Farm 3.5E Liberal | | Change Station
CLOSE
Current Station
Personal Weather Station
Location: Liberal, KS
Elevation: 2785 ft
Nearby Weather Stations
Active Advisory: Frost Advisory

Elev 2785 ft 37.02 °N, 100.86 °W | Updated 7 minutes ago

Overcast
Overcast
44.4 °F
Feels Like 38 °F
N
14.0
Wind Variable Wind from ENE
Gusts 16.0 mph

Today
High -- | Low -- °F
--% Chance of Precip.
Yesterday
High -- | Low -- °F
Precip. -- in
6:53 AM 8:28 PM
Waxing Gibbous, 69% visible
Pressure 30.13 in
Visibility 10.0 miles
Clouds Few 3800 ft
Scattered Clouds 5000 ft
Mostly Cloudy 7000 ft
Windchill 38 °F
Dew Point 42 °F
Humidity 90%
Rainfall 0.99 in
Snow Depth Not available.
UV 0 out of 12
Pollen 1.00 out of 12
Air Quality Not available.
Flu Activity Sporadic
METAR KLBL 280015Z AUTO 08012G19KT 10SM FEW038 SCT050 BKN070 09/04 A3013 RMK AO1

More Conditions Fewer Conditions

Pressure 30.13 in
Visibility 10.0 miles
Clouds Few 3800 ft
Scattered Clouds 5000 ft
Mostly Cloudy 7000 ft
Windchill 38 °F
Dew Point 42 °F
Humidity 90%
Rainfall 0.99 in
Snow Depth Not available.
UV 0 out of 12
Pollen 1.00 out of 12
Air Quality Not available.
Flu Activity Sporadic
METAR KLBL 280015Z AUTO 08012G19KT 10SM FEW038 SCT050 BKN070 09/04 A3013 RMK AO1

More Conditions Fewer Conditions

10-Day Weather Forecast

Almanac

Astronomy

Apr. 27, 2015 Rise Set
Actual Time
Civil Twilight
Nautical Twilight
Astronomical Twilight
Moon
Length of Visible Light
Length of Day
Tomorrow will be .
, % of the Moon is Illuminated

Today's Extremes

State Highs State Lows

Community

WunderPhotos

Upload Photos

1,817,493 photos uploaded!

WunderBlogs® & News

Nearby

Air Quality

  Air Quality AQ Index Pollutant
Not available.

Snow Depth

Station Depth Elevation

Earthquake Activity

City Distance Mag. Time & Date
Minimum magnitude displayed is 2.5.

Coastal Water Temperatures

Place Temperature

Stations

Nearby Weather Stations

Station Location Temp. Windchill Dew Point Humidity Wind Precip. Elev Updated Type
                   
Frost Advisory
Statement as of 5:58 PM CDT on April 27, 2015

... Frost advisory in effect from 1 am CDT /midnight MDT/ to 10 am
CDT /9 am MDT/ Tuesday...

The National Weather Service in Dodge City has issued a frost
advisory... which is in effect from 1 am CDT /midnight MDT/ to
10 am CDT /9 am MDT/ Tuesday.

* Temperature... lows of 32 to 35 degrees

* impacts... sensitive plants left outside may be damaged by the
cold temperatures tonight.

Precautionary/preparedness actions...

A frost advisory means that frost is possible. Sensitive outdoor
plants may be killed if left uncovered.